Time;durP1;ratioP1;P1;durP2;ratioP2;P2;SDS_P1;SDS_P2;PMS_P1;PMS_P2;Temp;Humidity;BMP_temperature;BMP_pressure;BME280_temperature;BME280_humidity;BME280_pressure;Samples;Min_cycle;Max_cycle;Signal;HPM_P1;HPM_P2
2021/01/13 00:00:30;;;;;;;10.82;5.00;;;2.30;99.90;;;;;;5078796;28;20036;-72
2021/01/13 00:02:56;;;;;;;10.52;4.78;;;2.30;99.90;;;;;;5074804;28;20705;-72
2021/01/13 00:05:24;;;;;;;10.48;5.68;;;2.30;99.90;;;;;;5075863;28;20093;-72
2021/01/13 00:07:55;;;;;;;11.35;5.25;;;2.30;99.90;;;;;;5074454;28;20044;-72
2021/01/13 00:10:23;;;;;;;9.25;4.18;;;2.30;99.90;;;;;;5073957;28;20050;-72
2021/01/13 00:12:52;;;;;;;16.63;5.43;;;2.40;99.90;;;;;;5075276;28;20054;-71
2021/01/13 00:15:17;;;;;;;15.68;5.32;;;2.30;99.90;;;;;;5074280;28;20039;-71
2021/01/13 00:17:51;;;;;;;11.30;4.40;;;2.30;99.90;;;;;;5073505;28;20033;-71
2021/01/13 00:20:17;;;;;;;13.05;5.10;;;2.30;99.90;;;;;;5073950;28;20029;-71
2021/01/13 00:22:46;;;;;;;15.80;5.35;;;2.30;99.90;;;;;;5065089;28;20059;-71
2021/01/13 00:25:15;;;;;;;12.32;4.88;;;2.30;99.90;;;;;;5074122;28;20497;-71
2021/01/13 00:27:41;;;;;;;13.95;4.97;;;2.30;99.90;;;;;;5072991;28;20040;-71
2021/01/13 00:30:07;;;;;;;9.27;4.40;;;2.30;99.90;;;;;;5069810;28;20032;-71
2021/01/13 00:32:33;;;;;;;12.98;4.43;;;2.30;99.90;;;;;;5072820;28;21889;-71
2021/01/13 00:35:01;;;;;;;15.95;5.93;;;2.30;99.90;;;;;;5075688;28;20119;-71
2021/01/13 00:37:36;;;;;;;11.43;4.90;;;2.30;99.90;;;;;;5075300;28;20666;-71
2021/01/13 00:40:03;;;;;;;16.92;5.07;;;2.30;99.90;;;;;;5074086;28;20035;-71
2021/01/13 00:42:29;;;;;;;12.98;4.85;;;2.30;99.90;;;;;;5073656;28;20024;-71
2021/01/13 00:44:57;;;;;;;13.52;5.07;;;2.30;99.90;;;;;;5068965;28;20492;-72
2021/01/13 00:47:24;;;;;;;13.50;5.30;;;2.30;99.90;;;;;;5074189;28;20111;-71
2021/01/13 00:49:52;;;;;;;11.40;5.25;;;2.30;99.90;;;;;;5059350;28;20085;-71
2021/01/13 00:52:20;;;;;;;14.15;4.93;;;2.30;99.90;;;;;;5075621;28;20069;-71
2021/01/13 00:54:50;;;;;;;10.45;5.32;;;2.30;99.90;;;;;;5064144;28;20040;-71
2021/01/13 00:57:16;;;;;;;13.30;5.38;;;2.30;99.90;;;;;;5074936;28;20033;-71
2021/01/13 00:59:44;;;;;;;12.15;5.30;;;2.30;99.90;;;;;;5074122;28;20701;-71
2021/01/13 01:02:12;;;;;;;11.77;5.22;;;2.30;99.90;;;;;;5073736;28;20062;-71
2021/01/13 01:04:40;;;;;;;12.07;5.22;;;2.30;99.90;;;;;;5071404;28;20034;-71
2021/01/13 01:07:08;;;;;;;11.65;5.00;;;2.20;99.90;;;;;;5073643;28;20058;-71
2021/01/13 01:09:38;;;;;;;14.40;5.22;;;2.20;99.90;;;;;;5074736;28;20028;-72
2021/01/13 01:12:05;;;;;;;14.02;5.10;;;2.20;99.90;;;;;;5073664;28;20028;-71
2021/01/13 01:14:30;;;;;;;11.73;4.97;;;2.20;99.90;;;;;;5074527;28;20028;-71
2021/01/13 01:16:58;;;;;;;10.57;4.95;;;2.30;99.90;;;;;;5074354;28;20107;-71
2021/01/13 01:19:24;;;;;;;11.07;4.50;;;2.30;99.90;;;;;;5074510;28;20047;-72
2021/01/13 01:21:51;;;;;;;11.95;4.55;;;2.30;99.90;;;;;;5073899;28;20063;-71
2021/01/13 01:24:17;;;;;;;10.05;4.03;;;2.30;99.90;;;;;;5073282;28;20530;-72
2021/01/13 01:26:51;;;;;;;12.40;4.50;;;2.30;99.90;;;;;;5078553;28;20089;-72
2021/01/13 01:29:17;;;;;;;11.18;4.57;;;2.30;99.90;;;;;;5075648;28;20036;-72
2021/01/13 01:31:46;;;;;;;12.20;4.47;;;2.30;99.90;;;;;;5074168;28;20029;-72
2021/01/13 01:34:13;;;;;;;10.88;3.85;;;2.30;99.90;;;;;;5052034;28;20032;-72
2021/01/13 01:36:39;;;;;;;11.40;4.13;;;2.30;99.90;;;;;;5073983;28;20039;-72
2021/01/13 01:39:05;;;;;;;13.02;4.20;;;2.30;99.90;;;;;;5074009;28;20044;-71
2021/01/13 01:41:30;;;;;;;10.65;4.00;;;2.20;99.90;;;;;;5073514;28;20099;-72
2021/01/13 01:43:58;;;;;;;12.60;4.40;;;2.20;99.90;;;;;;5068023;28;20170;-71
2021/01/13 01:46:27;;;;;;;11.27;4.00;;;2.20;99.90;;;;;;5072540;28;20465;-71
2021/01/13 01:49:00;;;;;;;12.75;4.80;;;2.20;99.90;;;;;;5050750;28;20120;-71
2021/01/13 01:51:27;;;;;;;12.05;4.38;;;2.20;99.90;;;;;;5072993;28;20100;-71
2021/01/13 01:54:12;;;;;;;10.25;4.07;;;2.20;99.90;;;;;;5050029;28;20027;-71
2021/01/13 01:56:41;;;;;;;12.23;4.20;;;2.20;99.90;;;;;;5075862;28;20035;-71
2021/01/13 01:59:08;;;;;;;10.23;3.80;;;2.30;99.90;;;;;;5072540;28;20025;-71
2021/01/13 02:01:44;;;;;;;11.32;3.78;;;2.30;99.90;;;;;;5073258;28;20028;-71
2021/01/13 02:04:14;;;;;;;10.98;3.60;;;2.30;99.90;;;;;;5064407;28;20043;-71
2021/01/13 02:06:59;;;;;;;10.05;3.78;;;2.30;99.90;;;;;;5058858;28;20112;-71
2021/01/13 02:09:28;;;;;;;8.45;3.40;;;2.30;99.90;;;;;;5072718;28;20039;-71
2021/01/13 02:11:55;;;;;;;8.05;3.30;;;2.30;99.90;;;;;;5071402;28;20063;-71
2021/01/13 02:14:21;;;;;;;9.88;3.58;;;2.20;99.90;;;;;;5078530;28;20039;-71
2021/01/13 02:16:55;;;;;;;12.15;3.53;;;2.20;99.90;;;;;;5079513;28;20119;-71
2021/01/13 02:19:47;;;;;;;8.80;3.17;;;2.30;99.90;;;;;;5076554;28;20033;-71
2021/01/13 02:22:25;;;;;;;7.00;3.30;;;2.30;99.90;;;;;;5041914;28;20487;-71
2021/01/13 02:25:13;;;;;;;8.75;3.45;;;2.30;99.90;;;;;;5077806;28;20031;-71
2021/01/13 02:28:00;;;;;;;11.43;3.42;;;2.30;99.90;;;;;;5077876;28;20025;-71
2021/01/13 02:30:55;;;;;;;7.78;3.30;;;2.30;99.90;;;;;;5076490;28;20051;-71
2021/01/13 02:33:36;;;;;;;9.70;3.05;;;2.30;99.90;;;;;;5039820;28;20072;-71
2021/01/13 02:36:26;;;;;;;7.63;2.80;;;2.30;99.90;;;;;;5076671;28;20028;-71
2021/01/13 02:38:52;;;;;;;9.40;2.83;;;2.30;99.90;;;;;;5075617;28;20579;-71
2021/01/13 02:41:27;;;;;;;11.27;3.22;;;2.30;99.90;;;;;;5076632;28;20118;-71
2021/01/13 02:44:00;;;;;;;9.05;3.25;;;2.30;99.90;;;;;;5076975;28;20489;-72
2021/01/13 02:46:54;;;;;;;8.65;3.28;;;2.30;99.90;;;;;;5056679;28;20517;-71
2021/01/13 02:49:23;;;;;;;10.38;3.13;;;2.30;99.90;;;;;;5075830;28;20024;-71
2021/01/13 02:51:54;;;;;;;10.27;3.10;;;2.30;99.90;;;;;;5061025;28;20029;-72
2021/01/13 02:54:34;;;;;;;8.13;2.80;;;2.20;99.90;;;;;;5077218;28;20028;-71
2021/01/13 02:57:08;;;;;;;7.38;2.72;;;2.30;99.90;;;;;;5060208;28;20039;-72
2021/01/13 02:59:37;;;;;;;9.65;3.33;;;2.30;99.90;;;;;;5050880;28;20036;-71
2021/01/13 03:02:12;;;;;;;9.75;2.70;;;2.30;99.90;;;;;;5079151;28;20035;-71
2021/01/13 03:04:40;;;;;;;8.80;3.00;;;2.40;99.90;;;;;;5076555;28;20021;-71
2021/01/13 03:07:13;;;;;;;11.55;3.30;;;2.30;99.90;;;;;;5077160;28;20021;-71
2021/01/13 03:09:48;;;;;;;8.95;2.70;;;2.30;99.90;;;;;;5076457;28;20112;-71
2021/01/13 03:12:25;;;;;;;10.90;3.13;;;2.40;99.90;;;;;;5069059;28;20047;-71
2021/01/13 03:15:02;;;;;;;5.47;2.20;;;2.40;99.90;;;;;;5076033;28;20096;-71
2021/01/13 03:17:50;;;;;;;9.15;2.83;;;2.30;99.90;;;;;;5060240;28;20039;-71
2021/01/13 03:20:28;;;;;;;7.32;2.58;;;2.30;99.90;;;;;;5071955;28;20035;-71
2021/01/13 03:23:11;;;;;;;11.52;3.17;;;2.20;99.90;;;;;;5077219;28;20104;-71
2021/01/13 03:26:01;;;;;;;10.93;2.88;;;2.20;99.90;;;;;;5078608;28;20039;-71
2021/01/13 03:28:47;;;;;;;8.05;2.92;;;2.20;99.90;;;;;;5074292;28;20637;-72
2021/01/13 03:31:16;;;;;;;11.35;3.40;;;2.20;99.90;;;;;;5075482;28;20051;-71
2021/01/13 03:33:53;;;;;;;9.80;2.50;;;2.20;99.90;;;;;;5074559;28;20143;-71
2021/01/13 03:36:24;;;;;;;8.80;2.40;;;2.20;99.90;;;;;;5084033;28;20034;-72
2021/01/13 03:39:07;;;;;;;10.35;2.85;;;2.20;99.90;;;;;;5061784;28;20400;-71
2021/01/13 03:41:54;;;;;;;10.55;3.42;;;2.20;99.90;;;;;;5075937;28;20024;-72
2021/01/13 03:44:33;;;;;;;9.32;2.50;;;2.20;99.90;;;;;;5072040;28;20520;-72
2021/01/13 03:47:21;;;;;;;8.07;2.70;;;2.20;99.90;;;;;;5076561;28;20104;-72
2021/01/13 03:50:21;;;;;;;8.00;2.40;;;2.30;99.90;;;;;;5076614;28;20089;-72
2021/01/13 03:52:49;;;;;;;9.32;2.30;;;2.30;99.90;;;;;;5075398;28;20064;-72
2021/01/13 03:55:18;;;;;;;12.23;2.67;;;2.30;99.90;;;;;;5075739;28;20081;-72
2021/01/13 03:57:46;;;;;;;9.40;2.80;;;2.30;99.90;;;;;;5075688;28;20076;-72
2021/01/13 04:00:13;;;;;;;8.88;2.30;;;2.30;99.90;;;;;;5082713;28;20154;-72
2021/01/13 04:03:12;;;;;;;8.00;2.20;;;2.20;99.90;;;;;;5076169;28;20024;-71
2021/01/13 04:05:41;;;;;;;8.45;2.30;;;2.30;99.90;;;;;;5050778;28;20046;-71
2021/01/13 04:08:11;;;;;;;7.75;2.40;;;2.20;99.90;;;;;;5074649;28;20020;-72
2021/01/13 04:10:36;;;;;;;10.07;2.33;;;2.20;99.90;;;;;;5074106;28;20519;-71
2021/01/13 04:13:45;;;;;;;10.25;2.00;;;2.20;99.90;;;;;;5079241;28;20040;-72
2021/01/13 04:16:12;;;;;;;11.18;2.45;;;2.20;99.90;;;;;;4956014;28;20034;-72
2021/01/13 04:18:38;;;;;;;10.85;2.42;;;2.10;99.90;;;;;;5058312;28;20047;-71
2021/01/13 04:21:05;;;;;;;9.57;2.20;;;2.10;99.90;;;;;;5073182;28;20025;-71
2021/01/13 04:23:36;;;;;;;10.07;2.15;;;2.10;99.90;;;;;;5074217;28;20639;-71
2021/01/13 04:26:05;;;;;;;14.75;2.47;;;2.10;99.90;;;;;;5065184;28;20115;-71
2021/01/13 04:28:31;;;;;;;7.63;2.15;;;2.00;99.90;;;;;;5059861;28;20035;-71
2021/01/13 04:30:57;;;;;;;10.05;2.63;;;2.00;99.90;;;;;;5068849;28;20127;-71
2021/01/13 04:33:23;;;;;;;9.85;2.65;;;2.00;99.90;;;;;;5082364;28;20029;-71
2021/01/13 04:35:51;;;;;;;9.68;2.40;;;2.00;99.90;;;;;;5073669;28;20059;-72
2021/01/13 04:38:22;;;;;;;10.70;2.20;;;2.10;99.90;;;;;;5090663;27;20063;-71
2021/01/13 04:41:12;;;;;;;8.50;1.90;;;2.10;99.90;;;;;;5074656;28;20392;-71
2021/01/13 04:44:00;;;;;;;7.15;2.10;;;2.10;99.90;;;;;;5071844;28;20073;-72
2021/01/13 04:46:39;;;;;;;9.52;2.55;;;2.10;99.90;;;;;;5073948;28;20036;-72
2021/01/13 04:49:09;;;;;;;8.73;2.00;;;2.10;99.90;;;;;;5074158;28;20029;-71
2021/01/13 04:51:42;;;;;;;5.68;1.83;;;2.10;99.90;;;;;;5075135;28;20028;-71
2021/01/13 04:54:18;;;;;;;8.30;2.08;;;2.10;99.90;;;;;;5076056;28;20589;-71
2021/01/13 04:57:10;;;;;;;7.78;2.35;;;2.20;99.90;;;;;;5075068;28;20086;-72
2021/01/13 05:00:13;;;;;;;6.50;1.45;;;2.20;99.90;;;;;;5074214;28;20047;-71
2021/01/13 05:02:55;;;;;;;9.80;2.55;;;2.20;99.90;;;;;;5074129;28;20055;-71
2021/01/13 05:05:23;;;;;;;5.55;2.00;;;2.10;99.90;;;;;;5072147;28;20027;-71
2021/01/13 05:08:11;;;;;;;6.30;1.83;;;2.10;99.90;;;;;;5046207;28;20039;-72
2021/01/13 05:10:41;;;;;;;9.18;2.40;;;2.20;99.90;;;;;;5054249;28;20035;-72
2021/01/13 05:13:09;;;;;;;6.00;2.10;;;2.10;99.90;;;;;;5074421;28;20039;-72
2021/01/13 05:15:37;;;;;;;8.70;2.22;;;2.00;99.90;;;;;;5063777;28;20959;-72
2021/01/13 05:18:13;;;;;;;12.73;2.40;;;2.00;99.90;;;;;;5071527;28;20039;-72
2021/01/13 05:20:43;;;;;;;8.45;2.40;;;1.90;99.90;;;;;;5065094;28;20031;-72
2021/01/13 05:23:10;;;;;;;11.45;2.28;;;1.90;99.90;;;;;;5075067;28;20058;-72
2021/01/13 05:25:36;;;;;;;10.00;2.90;;;1.90;99.90;;;;;;5074323;28;20431;-72
2021/01/13 05:28:07;;;;;;;9.10;2.20;;;1.90;99.90;;;;;;5076861;28;20021;-73
2021/01/13 05:30:34;;;;;;;11.85;2.10;;;1.80;99.90;;;;;;5073599;28;20028;-73
2021/01/13 05:33:02;;;;;;;9.68;2.28;;;1.80;99.90;;;;;;5072564;28;20032;-74
2021/01/13 05:35:29;;;;;;;8.35;2.53;;;1.80;99.90;;;;;;5054109;28;20037;-72
2021/01/13 05:38:18;;;;;;;8.80;2.30;;;1.90;99.90;;;;;;5074465;28;20350;-72
2021/01/13 05:40:48;;;;;;;7.68;2.15;;;1.90;99.90;;;;;;5073569;28;20116;-72
2021/01/13 05:43:16;;;;;;;9.95;2.33;;;1.80;99.90;;;;;;5072804;28;20026;-72
2021/01/13 05:45:42;;;;;;;10.40;2.42;;;1.80;99.90;;;;;;5072887;28;20044;-72
2021/01/13 05:48:15;;;;;;;10.05;2.95;;;1.80;99.90;;;;;;5076406;28;20115;-71
2021/01/13 05:50:43;;;;;;;7.00;2.40;;;1.80;99.90;;;;;;5074101;28;20131;-72
2021/01/13 05:53:14;;;;;;;9.20;2.63;;;1.70;99.90;;;;;;5075532;28;20032;-72
2021/01/13 05:55:49;;;;;;;8.88;2.88;;;1.70;99.90;;;;;;5074259;28;20441;-72
2021/01/13 05:58:23;;;;;;;7.22;2.90;;;1.60;99.90;;;;;;5075597;28;21803;-72
2021/01/13 06:00:50;;;;;;;10.30;3.10;;;1.50;99.90;;;;;;5074467;28;20089;-73
2021/01/13 06:03:15;;;;;;;6.22;2.70;;;1.50;99.90;;;;;;5071993;28;20032;-73
2021/01/13 06:05:48;;;;;;;9.75;3.05;;;1.50;99.90;;;;;;5071900;28;20028;-73
2021/01/13 06:08:14;;;;;;;8.65;2.78;;;1.40;99.90;;;;;;5051219;28;20021;-73
2021/01/13 06:10:40;;;;;;;7.53;2.65;;;1.40;99.90;;;;;;5048608;28;20036;-73
2021/01/13 06:13:06;;;;;;;12.43;3.03;;;1.40;99.90;;;;;;5071546;28;20029;-73
2021/01/13 06:15:33;;;;;;;9.07;2.75;;;1.40;99.90;;;;;;5075834;28;20362;-74
2021/01/13 06:17:59;;;;;;;9.07;3.35;;;1.40;99.90;;;;;;5074675;28;20059;-73
2021/01/13 06:20:29;;;;;;;9.73;2.92;;;1.30;99.90;;;;;;5074028;28;20029;-72
2021/01/13 06:22:56;;;;;;;9.40;2.78;;;1.30;99.90;;;;;;5072496;28;20040;-73
2021/01/13 06:25:33;;;;;;;10.25;2.67;;;1.30;99.90;;;;;;5073142;28;20035;-72
2021/01/13 06:28:27;;;;;;;9.43;2.60;;;1.30;99.90;;;;;;5072606;28;20035;-73
2021/01/13 06:31:08;;;;;;;6.07;2.40;;;1.30;99.90;;;;;;5059037;28;20032;-73
2021/01/13 06:34:03;;;;;;;11.02;3.00;;;1.30;99.90;;;;;;5073855;28;20702;-72
2021/01/13 06:36:30;;;;;;;9.82;3.20;;;1.30;99.90;;;;;;5066246;28;20045;-73
2021/01/13 06:38:57;;;;;;;9.05;3.20;;;1.30;99.90;;;;;;5073630;28;20938;-73
2021/01/13 06:41:27;;;;;;;9.85;3.17;;;1.30;99.90;;;;;;5058737;28;20032;-73
2021/01/13 06:44:05;;;;;;;6.63;3.10;;;1.30;99.90;;;;;;5074684;28;20098;-73
2021/01/13 06:46:33;;;;;;;13.40;3.30;;;1.30;99.90;;;;;;5073148;28;20043;-73
2021/01/13 06:49:15;;;;;;;7.50;3.20;;;1.20;99.90;;;;;;5072016;28;20036;-73
2021/01/13 06:51:48;;;;;;;12.68;3.33;;;1.30;99.90;;;;;;5071617;28;20063;-74
2021/01/13 06:54:15;;;;;;;9.02;3.30;;;1.20;99.90;;;;;;5063951;28;20387;-73
2021/01/13 06:56:55;;;;;;;9.95;3.22;;;1.20;99.90;;;;;;5084718;28;20061;-73
2021/01/13 06:59:22;;;;;;;10.13;3.17;;;1.20;99.90;;;;;;5083606;28;20066;-73
2021/01/13 07:01:54;;;;;;;10.77;3.45;;;1.20;99.90;;;;;;5085098;28;20063;-73
2021/01/13 07:04:25;;;;;;;9.43;3.28;;;1.20;99.90;;;;;;5089521;28;20039;-73
2021/01/13 07:06:57;;;;;;;9.30;3.17;;;1.20;99.90;;;;;;5077164;28;20037;-73
2021/01/13 07:09:25;;;;;;;11.38;3.33;;;1.20;99.90;;;;;;5058034;28;20039;-73
2021/01/13 07:11:51;;;;;;;9.68;3.08;;;1.20;99.90;;;;;;5075645;28;20035;-73
2021/01/13 07:14:17;;;;;;;10.63;3.33;;;1.20;99.90;;;;;;5077026;28;20376;-73
2021/01/13 07:16:43;;;;;;;10.57;3.28;;;1.20;99.90;;;;;;5057043;28;20607;-74
2021/01/13 07:19:11;;;;;;;8.82;3.33;;;1.20;99.90;;;;;;5086175;28;20023;-73
2021/01/13 07:21:42;;;;;;;10.90;3.80;;;1.20;99.90;;;;;;5072147;28;20059;-73
2021/01/13 07:24:17;;;;;;;6.75;2.90;;;1.30;99.90;;;;;;5087507;28;20024;-73
2021/01/13 07:26:43;;;;;;;10.38;3.67;;;1.30;99.90;;;;;;5076715;28;20016;-73
2021/01/13 07:29:12;;;;;;;9.57;3.42;;;1.20;99.90;;;;;;5075954;28;20032;-73
2021/01/13 07:31:40;;;;;;;11.65;3.42;;;1.20;99.90;;;;;;5088453;28;20029;-73
2021/01/13 07:34:15;;;;;;;10.90;3.47;;;1.10;99.90;;;;;;5073303;28;20083;-73
2021/01/13 07:36:43;;;;;;;13.25;3.78;;;1.10;99.90;;;;;;5072236;28;20027;-72
2021/01/13 07:39:10;;;;;;;9.45;3.67;;;1.10;99.90;;;;;;5070445;28;20033;-73
2021/01/13 07:42:15;;;;;;;10.52;3.50;;;1.00;99.90;;;;;;5080561;28;20059;-73
2021/01/13 07:44:42;;;;;;;11.20;3.28;;;1.10;99.90;;;;;;5088408;28;20082;-73
2021/01/13 07:47:47;;;;;;;10.95;3.45;;;1.10;99.90;;;;;;5090589;28;20024;-73
2021/01/13 07:50:13;;;;;;;9.35;3.42;;;1.20;99.90;;;;;;5042788;28;20028;-73
2021/01/13 07:52:46;;;;;;;11.98;3.95;;;1.20;99.90;;;;;;5090679;28;20595;-73
2021/01/13 07:55:34;;;;;;;10.55;3.50;;;1.20;99.90;;;;;;5087762;28;20483;-74
2021/01/13 07:58:01;;;;;;;11.23;3.78;;;1.20;99.90;;;;;;5086167;28;20045;-73
2021/01/13 08:00:33;;;;;;;9.68;3.15;;;1.20;99.90;;;;;;5086452;28;20064;-73
2021/01/13 08:03:17;;;;;;;10.95;3.67;;;1.10;99.90;;;;;;5085703;28;20019;-72
2021/01/13 08:06:02;;;;;;;7.47;3.17;;;1.20;99.90;;;;;;5089548;28;20080;-73
2021/01/13 08:08:48;;;;;;;12.82;4.13;;;1.10;99.90;;;;;;5091230;28;20016;-72
2021/01/13 08:11:18;;;;;;;11.18;3.80;;;1.10;99.90;;;;;;5074794;28;20016;-72
2021/01/13 08:14:26;;;;;;;11.50;3.50;;;1.20;99.90;;;;;;5087654;28;20122;-72
2021/01/13 08:17:16;;;;;;;9.23;3.63;;;1.20;99.90;;;;;;5089387;28;20051;-73
2021/01/13 08:20:26;;;;;;;12.32;4.32;;;1.20;99.90;;;;;;5088921;28;20024;-73
2021/01/13 08:23:16;;;;;;;8.68;2.90;;;1.20;99.90;;;;;;5034168;28;20267;-73
2021/01/13 08:25:50;;;;;;;11.50;3.28;;;1.20;99.90;;;;;;5086948;28;20016;-72
2021/01/13 08:28:16;;;;;;;11.02;4.72;;;1.20;99.90;;;;;;5061595;28;20035;-74
2021/01/13 08:30:44;;;;;;;11.43;4.70;;;1.30;99.90;;;;;;5056251;28;20093;-73
2021/01/13 08:33:22;;;;;;;14.27;4.78;;;1.30;99.90;;;;;;5087132;28;20047;-74
2021/01/13 08:35:48;;;;;;;13.82;5.03;;;1.20;99.90;;;;;;5075734;28;20461;-74
2021/01/13 08:38:17;;;;;;;11.38;4.75;;;1.20;99.90;;;;;;5086005;28;20031;-73
2021/01/13 08:40:49;;;;;;;13.35;5.10;;;1.20;99.90;;;;;;5085427;28;20454;-73
2021/01/13 08:43:18;;;;;;;12.52;5.07;;;1.20;99.90;;;;;;5088046;28;20107;-73
2021/01/13 08:45:48;;;;;;;12.38;5.32;;;1.20;99.90;;;;;;5087085;28;20028;-73
2021/01/13 08:48:14;;;;;;;13.55;5.75;;;1.20;99.90;;;;;;5084850;28;20103;-74
2021/01/13 08:50:42;;;;;;;12.70;5.55;;;1.20;99.90;;;;;;5086006;28;20122;-74
2021/01/13 08:53:07;;;;;;;14.35;5.30;;;1.20;99.90;;;;;;5085968;28;20059;-73
2021/01/13 08:55:38;;;;;;;12.10;4.60;;;1.20;99.90;;;;;;5086684;28;20135;-74
2021/01/13 08:58:10;;;;;;;10.88;4.85;;;1.30;99.90;;;;;;5086672;28;20036;-74
2021/01/13 09:00:37;;;;;;;11.75;4.60;;;1.40;99.90;;;;;;5057294;28;20453;-74
2021/01/13 09:03:10;;;;;;;11.60;4.75;;;1.40;99.90;;;;;;5049401;28;20366;-74
2021/01/13 09:05:39;;;;;;;13.30;5.05;;;1.50;99.90;;;;;;5084174;28;20027;-74
2021/01/13 09:08:09;;;;;;;11.23;4.82;;;1.60;99.90;;;;;;5086178;28;20053;-74
2021/01/13 09:10:52;;;;;;;12.40;5.50;;;1.60;99.90;;;;;;5084556;28;20056;-74
2021/01/13 09:13:30;;;;;;;12.48;5.10;;;1.70;99.90;;;;;;5087041;28;20039;-74
2021/01/13 09:16:17;;;;;;;12.63;4.97;;;1.70;99.90;;;;;;5085643;28;20032;-74
2021/01/13 09:18:42;;;;;;;14.07;5.75;;;1.80;99.90;;;;;;5090078;28;20097;-74
2021/01/13 09:21:08;;;;;;;16.85;6.35;;;1.80;99.90;;;;;;5065630;28;20064;-73
2021/01/13 09:23:34;;;;;;;11.90;6.35;;;1.80;99.90;;;;;;5058648;28;20503;-74
2021/01/13 09:26:04;;;;;;;15.50;5.72;;;1.80;99.90;;;;;;5070756;28;20424;-74
2021/01/13 09:28:30;;;;;;;13.50;5.97;;;1.90;99.90;;;;;;5100761;27;20123;-74
2021/01/13 09:30:58;;;;;;;15.38;5.72;;;1.90;99.90;;;;;;5086299;28;20146;-74
2021/01/13 09:33:39;;;;;;;16.10;6.43;;;2.00;99.90;;;;;;5072009;28;20039;-74
2021/01/13 09:36:10;;;;;;;12.77;5.95;;;2.00;99.90;;;;;;5068431;28;20028;-74
2021/01/13 09:38:40;;;;;;;13.73;6.00;;;2.00;99.90;;;;;;5085724;28;20030;-73
2021/01/13 09:41:08;;;;;;;14.40;6.35;;;2.10;99.90;;;;;;5073212;28;20024;-74
2021/01/13 09:43:46;;;;;;;15.32;6.53;;;2.10;99.90;;;;;;5086795;28;20513;-73
2021/01/13 09:46:21;;;;;;;15.35;6.43;;;2.10;99.90;;;;;;5087646;28;20539;-74
2021/01/13 09:49:00;;;;;;;13.50;6.43;;;2.20;99.90;;;;;;5086844;28;20027;-74
2021/01/13 09:51:26;;;;;;;11.95;6.60;;;2.20;99.90;;;;;;5088117;28;20099;-74
2021/01/13 09:53:58;;;;;;;20.75;7.18;;;2.20;99.90;;;;;;5088639;28;20020;-74
2021/01/13 09:56:24;;;;;;;;;;;2.20;99.90;;;;;;5067598;28;20122;-74
2021/01/13 09:58:55;;;;;;;12.73;6.47;;;2.30;99.90;;;;;;5088725;28;20007;-74
2021/01/13 10:01:24;;;;;;;16.08;7.55;;;2.30;99.90;;;;;;5079037;28;20038;-74
2021/01/13 10:03:51;;;;;;;13.65;7.18;;;2.30;99.90;;;;;;5089918;28;20017;-74
2021/01/13 10:06:27;;;;;;;16.92;7.15;;;2.30;99.90;;;;;;5086997;28;20043;-74
2021/01/13 10:08:55;;;;;;;14.60;7.60;;;2.40;99.90;;;;;;5086762;28;20027;-72
2021/01/13 10:11:23;;;;;;;12.98;7.25;;;2.40;99.90;;;;;;5088386;28;21924;-74
2021/01/13 10:14:02;;;;;;;15.70;7.85;;;2.40;99.90;;;;;;5086477;28;20054;-74
2021/01/13 10:16:30;;;;;;;12.88;7.82;;;2.40;99.90;;;;;;5075885;28;20146;-73
2021/01/13 10:18:57;;;;;;;14.85;7.70;;;2.40;99.90;;;;;;5089162;28;20015;-73
2021/01/13 10:21:23;;;;;;;18.80;7.97;;;2.50;99.90;;;;;;5069416;28;20066;-73
2021/01/13 10:23:52;;;;;;;17.00;8.10;;;2.50;99.90;;;;;;5087152;28;20044;-73
2021/01/13 10:26:20;;;;;;;16.73;8.65;;;2.50;99.90;;;;;;5087159;28;20031;-73
2021/01/13 10:28:46;;;;;;;13.98;7.72;;;2.50;99.90;;;;;;5089007;28;20754;-73
2021/01/13 10:31:24;;;;;;;14.43;7.38;;;2.50;99.90;;;;;;5086033;28;20036;-74
2021/01/13 10:33:54;;;;;;;13.70;7.50;;;2.60;99.90;;;;;;5072825;28;20024;-73
2021/01/13 10:36:37;;;;;;;15.43;8.05;;;2.60;99.90;;;;;;5091533;28;20032;-73
2021/01/13 10:39:11;;;;;;;15.38;7.20;;;2.60;99.90;;;;;;5071410;28;20112;-73
2021/01/13 10:41:53;;;;;;;14.18;7.07;;;2.60;99.90;;;;;;5090728;28;20055;-73
2021/01/13 10:44:23;;;;;;;12.50;7.32;;;2.60;99.90;;;;;;5088430;28;20672;-73
2021/01/13 10:46:51;;;;;;;15.68;7.85;;;2.60;99.90;;;;;;5080714;28;20095;-73
2021/01/13 10:49:29;;;;;;;11.85;7.30;;;2.70;99.90;;;;;;5093571;28;20085;-73
2021/01/13 10:51:56;;;;;;;14.85;7.82;;;2.70;99.90;;;;;;5087026;28;20338;-73
2021/01/13 10:54:24;;;;;;;14.02;7.30;;;2.70;99.90;;;;;;5077292;28;20028;-73
2021/01/13 10:57:15;;;;;;;11.93;7.35;;;2.70;99.90;;;;;;5090250;28;20024;-74
2021/01/13 10:59:46;;;;;;;12.82;7.38;;;2.70;99.90;;;;;;5089869;28;20108;-73
2021/01/13 11:02:12;;;;;;;11.80;7.13;;;2.70;99.90;;;;;;5090070;28;20020;-73
2021/01/13 11:04:45;;;;;;;14.27;7.15;;;2.80;99.90;;;;;;5078436;28;20020;-73
2021/01/13 11:07:21;;;;;;;14.18;7.38;;;2.80;99.90;;;;;;5071613;28;20016;-73
2021/01/13 11:09:50;;;;;;;13.90;7.47;;;2.80;99.90;;;;;;5090796;28;20044;-73
2021/01/13 11:12:23;;;;;;;12.85;6.28;;;2.80;99.90;;;;;;5090608;28;20028;-73
2021/01/13 11:14:50;;;;;;;12.15;6.18;;;2.80;99.90;;;;;;5064036;28;21836;-73
2021/01/13 11:17:23;;;;;;;10.75;5.90;;;2.80;99.90;;;;;;5088972;28;20807;-73
2021/01/13 11:19:52;;;;;;;12.80;5.60;;;2.90;99.90;;;;;;5088095;28;20039;-74
2021/01/13 11:22:18;;;;;;;11.55;5.88;;;2.90;99.90;;;;;;5088691;28;20044;-73
2021/01/13 11:24:47;;;;;;;10.77;5.88;;;2.90;99.90;;;;;;5091097;28;20421;-73
2021/01/13 11:27:18;;;;;;;12.10;6.32;;;3.00;99.90;;;;;;5088332;28;20655;-73
2021/01/13 11:29:52;;;;;;;11.10;5.97;;;3.00;99.90;;;;;;5086354;28;20019;-73
2021/01/13 11:32:19;;;;;;;11.38;5.97;;;3.10;99.90;;;;;;5089932;28;20056;-73
2021/01/13 11:34:51;;;;;;;13.52;6.20;;;3.10;99.90;;;;;;5090876;28;20025;-73
2021/01/13 11:37:21;;;;;;;13.55;7.75;;;3.20;99.90;;;;;;5063685;28;20143;-73
2021/01/13 11:40:02;;;;;;;12.70;5.53;;;3.20;99.90;;;;;;5088756;28;20492;-73
2021/01/13 11:42:56;;;;;;;9.27;5.03;;;3.30;99.90;;;;;;5077953;28;20084;-74
2021/01/13 11:45:29;;;;;;;16.13;6.22;;;3.30;99.90;;;;;;5090987;28;20024;-74
2021/01/13 11:47:58;;;;;;;9.98;5.15;;;3.30;99.90;;;;;;5080167;28;20055;-74
2021/01/13 11:50:28;;;;;;;12.25;5.53;;;3.40;99.90;;;;;;5073176;28;20047;-75
2021/01/13 11:53:01;;;;;;;10.23;5.65;;;3.40;99.90;;;;;;5087455;28;20031;-74
2021/01/13 11:55:34;;;;;;;9.75;5.20;;;3.50;99.90;;;;;;4374651;28;10000767;-74
2021/01/13 11:58:00;;;;;;;12.60;5.60;;;3.50;99.90;;;;;;5055185;28;20032;-74
2021/01/13 12:00:29;;;;;;;10.75;4.28;;;3.50;99.90;;;;;;5087345;28;20047;-73
2021/01/13 12:03:01;;;;;;;10.35;4.28;;;3.50;99.90;;;;;;5078144;28;20034;-73
2021/01/13 12:05:34;;;;;;;9.10;4.17;;;3.60;99.90;;;;;;5084018;28;20488;-73
2021/01/13 12:08:04;;;;;;;10.90;4.00;;;3.60;99.90;;;;;;5087180;28;20261;-73
2021/01/13 12:10:33;;;;;;;10.13;3.80;;;3.60;99.90;;;;;;5086293;28;20067;-74
2021/01/13 12:13:25;;;;;;;10.73;3.30;;;3.70;99.90;;;;;;5087378;28;21976;-74
2021/01/13 12:15:57;;;;;;;7.63;3.00;;;3.80;99.90;;;;;;5082272;28;20043;-73
2021/01/13 12:18:42;;;;;;;6.80;3.00;;;3.80;99.90;;;;;;5081531;28;20036;-74
2021/01/13 12:21:14;;;;;;;8.18;3.50;;;3.80;99.90;;;;;;5086885;28;20474;-74
2021/01/13 12:23:40;;;;;;;7.20;2.40;;;3.80;99.90;;;;;;5088249;28;20473;-73
2021/01/13 12:26:22;;;;;;;10.00;3.10;;;3.90;99.90;;;;;;5070288;28;20056;-73
2021/01/13 12:28:52;;;;;;;9.20;3.67;;;3.90;99.90;;;;;;4734568;28;9999662;-73
2021/01/13 12:31:26;;;;;;;6.55;2.65;;;3.90;99.90;;;;;;5078597;28;20036;-73
2021/01/13 12:34:01;;;;;;;7.20;2.88;;;4.00;99.90;;;;;;5084178;28;20034;-73
2021/01/13 12:36:32;;;;;;;7.38;3.10;;;4.00;99.90;;;;;;5087438;28;20024;-73
2021/01/13 12:39:01;;;;;;;7.85;2.88;;;4.00;99.90;;;;;;5074342;28;20031;-72
2021/01/13 12:41:32;;;;;;;8.57;3.50;;;4.00;99.90;;;;;;5085701;28;20103;-73
2021/01/13 12:44:05;;;;;;;8.10;3.22;;;4.00;99.90;;;;;;5084161;28;20039;-73
2021/01/13 12:46:31;;;;;;;5.15;2.65;;;4.00;99.90;;;;;;5085835;28;20036;-72
2021/01/13 12:49:00;;;;;;;6.35;3.10;;;4.10;99.90;;;;;;5086539;28;20024;-73
2021/01/13 12:51:28;;;;;;;6.95;2.65;;;4.10;99.90;;;;;;5085620;28;20008;-73
2021/01/13 12:53:57;;;;;;;7.38;3.03;;;4.10;99.90;;;;;;5082510;28;20024;-73
2021/01/13 12:56:23;;;;;;;7.28;3.00;;;4.10;99.90;;;;;;5082965;28;20048;-74
2021/01/13 12:58:49;;;;;;;7.00;2.70;;;4.10;99.90;;;;;;5084781;28;20015;-73
2021/01/13 13:01:20;;;;;;;7.47;2.90;;;4.10;99.90;;;;;;5064407;28;20031;-73
2021/01/13 13:03:48;;;;;;;6.13;2.70;;;4.10;99.90;;;;;;5084535;28;20454;-73
2021/01/13 13:06:26;;;;;;;8.45;2.90;;;4.10;99.90;;;;;;5086146;28;20039;-73
2021/01/13 13:08:55;;;;;;;7.47;2.85;;;4.10;99.90;;;;;;5084893;28;20023;-73
2021/01/13 13:11:24;;;;;;;7.00;2.90;;;4.10;99.90;;;;;;5073390;28;20035;-73
2021/01/13 13:13:52;;;;;;;7.82;2.90;;;4.10;99.90;;;;;;5092549;28;20032;-74
2021/01/13 13:16:23;;;;;;;8.90;2.97;;;4.00;99.90;;;;;;5086899;28;20055;-73
2021/01/13 13:18:54;;;;;;;5.85;2.80;;;4.00;99.90;;;;;;5083759;28;20024;-73